createdAt,value
2022-07-26T00:02:03.984Z,25.40
2022-07-26T00:04:52.306Z,25.40
2022-07-26T00:07:39.238Z,25.30
2022-07-26T00:10:25.878Z,25.30
2022-07-26T00:13:13.486Z,25.30
2022-07-26T00:15:59.866Z,25.20
2022-07-26T00:18:47.490Z,25.10
2022-07-26T00:21:36.853Z,25.10
2022-07-26T00:24:29.971Z,25.10
2022-07-26T00:27:20.485Z,25.10
2022-07-26T00:30:09.817Z,25.10
2022-07-26T00:32:56.693Z,25.10
2022-07-26T00:35:43.550Z,25.20
2022-07-26T00:38:31.672Z,25.20
2022-07-26T00:41:18.430Z,25.20
2022-07-26T00:44:05.428Z,25.10
2022-07-26T00:46:53.050Z,25.10
2022-07-26T00:49:39.929Z,25.00
2022-07-26T00:52:26.729Z,25.00
2022-07-26T00:55:15.508Z,25.00
2022-07-26T00:58:02.500Z,25.00
2022-07-26T01:00:49.731Z,24.90
2022-07-26T01:03:39.827Z,24.90
2022-07-26T01:06:27.520Z,24.80
2022-07-26T01:09:15.701Z,24.80
2022-07-26T01:12:03.563Z,24.80
2022-07-26T01:14:50.254Z,24.70
2022-07-26T01:17:38.144Z,24.70
2022-07-26T01:20:25.366Z,24.80
2022-07-26T01:23:14.334Z,24.70
2022-07-26T01:26:00.941Z,24.70
2022-07-26T01:28:49.392Z,24.70
2022-07-26T01:31:36.523Z,24.60
2022-07-26T01:34:23.577Z,24.60
2022-07-26T01:37:10.545Z,24.60
2022-07-26T01:39:58.853Z,24.50
2022-07-26T01:42:45.309Z,24.50
2022-07-26T01:45:33.892Z,24.50
2022-07-26T01:48:20.657Z,24.40
2022-07-26T01:51:07.502Z,24.40
2022-07-26T01:53:53.849Z,24.30
2022-07-26T01:56:43.280Z,24.20
2022-07-26T01:59:29.912Z,24.20
2022-07-26T02:02:19.984Z,24.20
2022-07-26T02:05:08.008Z,24.10
2022-07-26T02:07:54.884Z,24.10
2022-07-26T02:11:00.000Z,23.90
2022-07-26T02:13:53.198Z,23.80
2022-07-26T02:16:39.915Z,23.70
2022-07-26T02:19:27.307Z,23.70
2022-07-26T02:22:13.945Z,23.70
2022-07-26T02:25:05.066Z,23.70
2022-07-26T02:27:52.596Z,23.60
2022-07-26T02:30:40.813Z,23.60
2022-07-26T02:33:28.177Z,23.50
2022-07-26T02:36:15.010Z,23.40
2022-07-26T02:39:01.531Z,23.40
2022-07-26T02:41:49.089Z,23.40
2022-07-26T02:44:36.629Z,23.40
2022-07-26T02:47:24.803Z,23.40
2022-07-26T02:50:11.635Z,23.40
2022-07-26T02:52:58.227Z,23.40
2022-07-26T02:55:45.277Z,23.30
2022-07-26T02:58:31.992Z,23.30
2022-07-26T03:01:18.775Z,23.30
2022-07-26T03:04:08.533Z,23.40
2022-07-26T03:06:55.782Z,23.30
2022-07-26T03:09:42.700Z,23.30
2022-07-26T03:12:29.335Z,23.30
2022-07-26T03:15:16.224Z,23.20
2022-07-26T03:18:02.757Z,23.20
2022-07-26T03:20:51.005Z,23.20
2022-07-26T03:23:37.764Z,23.20
2022-07-26T03:26:24.869Z,23.20
2022-07-26T03:29:11.634Z,23.20
2022-07-26T03:31:58.520Z,23.10
2022-07-26T03:34:44.962Z,23.20
2022-07-26T03:37:45.773Z,23.10
2022-07-26T03:40:33.433Z,23.10
2022-07-26T03:43:23.259Z,23.10
2022-07-26T03:46:10.475Z,22.90
2022-07-26T03:48:57.828Z,22.90
2022-07-26T03:51:44.352Z,22.90
2022-07-26T03:54:32.787Z,22.90
2022-07-26T03:57:18.465Z,23.00
2022-07-26T04:00:06.343Z,23.00
2022-07-26T04:02:54.534Z,22.90
2022-07-26T04:05:48.517Z,22.80
2022-07-26T04:08:36.205Z,22.90
2022-07-26T04:11:26.542Z,22.80
2022-07-26T04:14:15.817Z,22.70
2022-07-26T04:17:02.381Z,22.70
2022-07-26T04:19:49.310Z,22.60
2022-07-26T04:22:35.936Z,22.60
2022-07-26T04:25:23.028Z,22.50
2022-07-26T04:28:11.423Z,22.50
2022-07-26T04:31:00.644Z,22.40
2022-07-26T04:33:47.658Z,22.50
2022-07-26T04:36:34.278Z,22.60
2022-07-26T04:39:24.489Z,22.70
2022-07-26T04:42:11.673Z,22.80
2022-07-26T04:45:03.113Z,22.90
2022-07-26T04:47:53.320Z,23.10
2022-07-26T04:50:39.823Z,23.30
2022-07-26T04:53:26.533Z,23.50
2022-07-26T04:56:13.049Z,23.60
2022-07-26T04:58:59.877Z,23.70
2022-07-26T05:01:47.784Z,23.90
2022-07-26T05:04:34.734Z,24.20
2022-07-26T05:07:21.214Z,24.30
2022-07-26T05:10:08.764Z,24.70
2022-07-26T05:12:55.594Z,24.90
2022-07-26T05:15:42.862Z,25.20
2022-07-26T05:18:45.691Z,25.50
2022-07-26T05:21:35.288Z,25.40
2022-07-26T05:24:22.445Z,25.20
2022-07-26T05:27:09.245Z,25.20
2022-07-26T05:29:56.534Z,25.60
2022-07-26T05:32:42.969Z,25.90
2022-07-26T05:35:30.844Z,26.00
2022-07-26T05:38:17.226Z,26.30
2022-07-26T05:41:03.748Z,26.40
2022-07-26T05:43:50.394Z,26.40
2022-07-26T05:46:37.659Z,26.70
2022-07-26T05:49:25.882Z,26.90
2022-07-26T05:52:13.784Z,26.70
2022-07-26T05:55:00.249Z,26.70
2022-07-26T05:57:49.533Z,26.90
2022-07-26T06:00:36.428Z,27.20
2022-07-26T06:03:22.930Z,27.50
2022-07-26T06:06:11.420Z,27.90
2022-07-26T06:08:59.398Z,28.10
2022-07-26T06:11:46.149Z,27.90
2022-07-26T06:14:32.630Z,28.10
2022-07-26T06:17:19.623Z,27.90
2022-07-26T06:20:07.850Z,27.90
2022-07-26T06:22:54.588Z,28.10
2022-07-26T06:25:42.749Z,28.60
2022-07-26T06:28:29.477Z,29.40
2022-07-26T06:31:16.006Z,29.70
2022-07-26T06:34:02.969Z,29.90
2022-07-26T06:36:49.622Z,29.20
2022-07-26T06:39:36.671Z,28.20
2022-07-26T06:42:24.481Z,27.60
2022-07-26T06:45:12.226Z,28.30
2022-07-26T06:47:59.001Z,29.10
2022-07-26T06:50:45.428Z,29.40
2022-07-26T06:53:32.103Z,29.40
2022-07-26T06:56:19.236Z,29.70
2022-07-26T06:59:09.522Z,30.00
2022-07-26T07:02:00.047Z,29.90
2022-07-26T07:04:47.151Z,29.90
2022-07-26T07:07:36.047Z,29.90
2022-07-26T07:10:23.876Z,30.20
2022-07-26T07:13:12.014Z,30.10
2022-07-26T07:16:00.308Z,29.50
2022-07-26T07:18:47.032Z,29.80
2022-07-26T07:21:34.492Z,30.30
2022-07-26T07:24:21.471Z,30.50
2022-07-26T07:27:10.489Z,30.10
2022-07-26T07:29:57.759Z,30.20
2022-07-26T07:32:45.712Z,30.00
2022-07-26T07:35:32.853Z,30.40
2022-07-26T07:38:19.979Z,30.90
2022-07-26T07:41:09.178Z,31.20
2022-07-26T07:43:55.582Z,31.10
2022-07-26T07:46:42.025Z,31.00
2022-07-26T07:49:30.385Z,31.20
2022-07-26T07:52:16.959Z,31.20
2022-07-26T07:55:39.998Z,31.40
2022-07-26T07:58:12.071Z,31.90
2022-07-26T08:00:58.905Z,32.20
2022-07-26T08:03:45.883Z,32.50
2022-07-26T08:06:40.939Z,32.40
2022-07-26T08:09:28.824Z,32.80
2022-07-26T08:12:15.696Z,32.90
2022-07-26T08:15:02.563Z,32.60
2022-07-26T08:17:55.041Z,32.70
2022-07-26T08:20:41.703Z,32.80
2022-07-26T08:23:29.439Z,32.80
2022-07-26T08:26:16.052Z,32.80
2022-07-26T08:29:02.938Z,32.70
2022-07-26T08:31:52.751Z,32.70
2022-07-26T08:34:39.416Z,32.80
2022-07-26T08:37:26.234Z,32.90
2022-07-26T08:40:14.707Z,32.60
2022-07-26T08:43:02.355Z,33.00
2022-07-26T08:45:50.048Z,32.80
2022-07-26T08:48:38.734Z,32.70
2022-07-26T08:51:27.012Z,32.60
2022-07-26T08:54:16.358Z,32.20
2022-07-26T08:57:04.476Z,32.50
2022-07-26T09:00:15.330Z,32.70
2022-07-26T09:03:03.419Z,32.20
2022-07-26T09:05:49.682Z,32.50
2022-07-26T09:08:37.154Z,33.00
2022-07-26T09:11:32.401Z,33.30
2022-07-26T09:14:20.641Z,32.70
2022-07-26T09:17:08.102Z,32.50
2022-07-26T09:20:07.776Z,32.60
2022-07-26T09:23:00.033Z,32.40
2022-07-26T09:25:47.811Z,32.70
2022-07-26T09:28:34.780Z,32.50
2022-07-26T09:31:24.362Z,32.00
2022-07-26T09:34:11.498Z,32.40
2022-07-26T09:36:58.258Z,32.60
2022-07-26T09:39:56.756Z,31.90
2022-07-26T09:42:55.696Z,32.40
2022-07-26T09:45:43.205Z,32.70
2022-07-26T09:48:52.271Z,32.60
2022-07-26T09:51:40.515Z,32.90
2022-07-26T09:54:33.588Z,32.70
2022-07-26T09:57:23.236Z,32.40
2022-07-26T10:00:11.864Z,32.50
2022-07-26T10:02:59.079Z,32.50
2022-07-26T10:05:47.330Z,32.30
2022-07-26T10:08:34.434Z,32.10
2022-07-26T10:11:22.285Z,31.70
2022-07-26T10:14:38.318Z,32.00
2022-07-26T10:17:46.013Z,32.60
2022-07-26T10:20:55.025Z,32.60
2022-07-26T10:23:43.888Z,33.30
2022-07-26T10:26:43.299Z,33.10
2022-07-26T10:29:31.659Z,33.20
2022-07-26T10:32:20.531Z,32.80
2022-07-26T10:35:32.150Z,32.10
2022-07-26T10:38:26.910Z,31.30
2022-07-26T10:41:13.832Z,31.80
2022-07-26T10:44:31.435Z,32.30
2022-07-26T10:47:19.436Z,32.50
2022-07-26T10:50:07.931Z,33.10
2022-07-26T10:52:59.758Z,33.50
2022-07-26T10:55:49.843Z,33.30
2022-07-26T10:58:44.255Z,33.10
2022-07-26T11:01:35.081Z,32.00
2022-07-26T11:04:22.019Z,31.70
2022-07-26T11:07:08.776Z,32.00
2022-07-26T11:09:57.255Z,32.50
2022-07-26T11:12:45.358Z,32.80
2022-07-26T11:15:32.507Z,33.30
2022-07-26T11:18:22.625Z,33.40
2022-07-26T11:21:11.734Z,33.50
2022-07-26T11:24:03.478Z,33.50
2022-07-26T11:26:52.313Z,33.70
2022-07-26T11:29:41.479Z,33.70
2022-07-26T11:32:28.145Z,33.40
2022-07-26T11:35:14.947Z,33.10
2022-07-26T11:38:11.822Z,32.40
2022-07-26T11:40:59.249Z,32.10
2022-07-26T11:43:46.138Z,31.90
2022-07-26T11:46:37.193Z,32.40
2022-07-26T11:49:49.011Z,32.70
2022-07-26T11:52:32.759Z,32.80
2022-07-26T11:55:27.291Z,32.90
2022-07-26T11:58:14.045Z,33.00
2022-07-26T12:01:00.796Z,33.10
2022-07-26T12:03:51.033Z,33.30
2022-07-26T12:06:40.251Z,32.80
2022-07-26T12:09:35.304Z,32.20
2022-07-26T12:12:24.120Z,32.30
2022-07-26T12:15:12.506Z,32.60
2022-07-26T12:18:00.286Z,32.90
2022-07-26T12:21:04.609Z,32.70
2022-07-26T12:23:53.079Z,32.60
2022-07-26T12:26:40.957Z,32.40
2022-07-26T12:29:34.064Z,32.40
2022-07-26T12:32:23.403Z,32.40
2022-07-26T12:35:11.642Z,32.10
2022-07-26T12:38:00.354Z,32.10
2022-07-26T12:40:47.535Z,32.00
2022-07-26T12:43:40.378Z,31.40
2022-07-26T12:46:27.006Z,31.30
2022-07-26T12:49:14.274Z,31.20
2022-07-26T12:52:01.169Z,31.00
2022-07-26T12:54:50.781Z,30.70
2022-07-26T12:57:37.980Z,30.60
2022-07-26T13:00:29.888Z,30.60
2022-07-26T13:03:16.946Z,30.70
2022-07-26T13:06:04.343Z,30.30
2022-07-26T13:08:50.737Z,30.00
2022-07-26T13:11:38.547Z,30.30
2022-07-26T13:14:25.273Z,30.20
2022-07-26T13:17:12.458Z,30.10
2022-07-26T13:19:59.371Z,30.00
2022-07-26T13:22:46.376Z,30.10
2022-07-26T13:25:39.859Z,29.70
2022-07-26T13:28:28.773Z,29.50
2022-07-26T13:31:15.285Z,29.60
2022-07-26T13:34:02.145Z,29.70
2022-07-26T13:36:49.463Z,29.90
2022-07-26T13:39:35.886Z,30.10
2022-07-26T13:42:22.818Z,30.00
2022-07-26T13:45:12.444Z,29.90
2022-07-26T13:47:59.870Z,29.80
2022-07-26T13:50:46.645Z,29.70
2022-07-26T13:53:33.589Z,29.70
2022-07-26T13:56:20.551Z,29.60
2022-07-26T13:59:07.070Z,29.50
2022-07-26T14:01:56.362Z,29.50
2022-07-26T14:04:43.464Z,29.50
2022-07-26T14:07:30.688Z,29.40
2022-07-26T14:10:19.582Z,29.50
2022-07-26T14:13:06.485Z,29.50
2022-07-26T14:15:53.326Z,29.60
2022-07-26T14:18:41.766Z,29.40
2022-07-26T14:21:29.395Z,29.30
2022-07-26T14:24:33.531Z,29.20
2022-07-26T14:27:20.527Z,29.00
2022-07-26T14:30:07.979Z,29.00
2022-07-26T14:32:54.662Z,29.00
2022-07-26T14:35:43.977Z,29.00
2022-07-26T14:38:30.385Z,29.00
2022-07-26T14:41:17.556Z,29.00
2022-07-26T14:44:05.399Z,29.00
2022-07-26T14:46:52.146Z,28.90
2022-07-26T14:49:39.118Z,28.80
2022-07-26T14:52:27.346Z,28.80
2022-07-26T14:55:14.938Z,28.80
2022-07-26T14:58:01.505Z,28.80
2022-07-26T15:00:48.437Z,28.90
2022-07-26T15:03:35.247Z,28.80
2022-07-26T15:06:21.809Z,28.80
2022-07-26T15:09:10.073Z,28.90
2022-07-26T15:11:56.796Z,28.90
2022-07-26T15:14:46.029Z,28.90
2022-07-26T15:17:32.720Z,28.90
2022-07-26T15:20:20.046Z,28.90
2022-07-26T15:23:08.711Z,29.00
2022-07-26T15:25:59.828Z,28.90
2022-07-26T15:28:46.631Z,28.80
2022-07-26T15:31:37.554Z,28.80
2022-07-26T15:34:24.331Z,28.80
2022-07-26T15:37:11.435Z,28.80
2022-07-26T15:39:58.082Z,28.80
2022-07-26T15:42:47.247Z,28.80
2022-07-26T15:45:34.921Z,28.60
2022-07-26T15:48:22.713Z,28.50
2022-07-26T15:51:09.610Z,28.60
2022-07-26T15:53:56.482Z,28.70
2022-07-26T15:56:42.880Z,28.70
2022-07-26T15:59:30.946Z,28.70
2022-07-26T16:02:17.484Z,28.70
2022-07-26T16:05:05.319Z,28.70
2022-07-26T16:07:51.705Z,28.70
2022-07-26T16:10:38.578Z,28.80
2022-07-26T16:13:25.049Z,28.70
2022-07-26T16:16:13.316Z,28.70
2022-07-26T16:19:00.026Z,28.70
2022-07-26T16:21:46.935Z,28.60
2022-07-26T16:24:33.469Z,28.70
2022-07-26T16:27:20.635Z,28.50
2022-07-26T16:30:08.337Z,28.40
2022-07-26T16:32:56.353Z,28.50
2022-07-26T16:35:43.234Z,28.40
2022-07-26T16:38:30.232Z,28.30
2022-07-26T16:41:16.846Z,28.30
2022-07-26T16:44:03.826Z,28.40
2022-07-26T16:46:50.236Z,28.40
2022-07-26T16:49:38.472Z,28.50
2022-07-26T16:52:25.390Z,28.50
2022-07-26T16:55:15.234Z,28.40
2022-07-26T16:58:01.769Z,28.30
2022-07-26T17:00:48.347Z,28.30
2022-07-26T17:03:35.527Z,28.20
2022-07-26T17:06:23.806Z,28.20
2022-07-26T17:09:15.095Z,28.20
2022-07-26T17:12:06.403Z,28.20
2022-07-26T17:14:54.204Z,28.10
2022-07-26T17:17:42.943Z,28.10
2022-07-26T17:20:32.600Z,28.10
2022-07-26T17:23:20.496Z,28.10
2022-07-26T17:26:07.697Z,28.00
2022-07-26T17:28:54.274Z,27.90
2022-07-26T17:31:40.699Z,27.80
2022-07-26T17:34:27.769Z,27.80
2022-07-26T17:37:14.457Z,27.70
2022-07-26T17:40:05.221Z,27.60
2022-07-26T17:42:54.499Z,27.60
2022-07-26T17:45:41.018Z,27.50
2022-07-26T17:48:27.943Z,27.40
2022-07-26T17:51:15.250Z,27.30
2022-07-26T17:54:01.645Z,27.30
2022-07-26T17:56:49.855Z,27.20
2022-07-26T17:59:36.554Z,27.20
2022-07-26T18:02:23.127Z,27.20
2022-07-26T18:05:11.022Z,27.30
2022-07-26T18:07:57.835Z,27.30
2022-07-26T18:10:49.078Z,27.30
2022-07-26T18:13:39.642Z,27.20
2022-07-26T18:16:27.009Z,27.10
2022-07-26T18:19:14.310Z,27.10
2022-07-26T18:22:05.750Z,27.00
2022-07-26T18:24:52.909Z,27.00
2022-07-26T18:27:39.641Z,26.90
2022-07-26T18:30:29.726Z,26.90
2022-07-26T18:33:16.406Z,26.90
2022-07-26T18:36:03.286Z,26.80
2022-07-26T18:38:50.398Z,26.70
2022-07-26T18:41:37.134Z,26.70
2022-07-26T18:44:23.620Z,26.70
2022-07-26T18:47:12.132Z,26.60
2022-07-26T18:49:58.977Z,26.60
2022-07-26T18:52:47.131Z,26.50
2022-07-26T18:55:33.849Z,26.50
2022-07-26T18:58:21.707Z,26.40
2022-07-26T19:01:13.612Z,26.30
2022-07-26T19:04:06.548Z,26.30
2022-07-26T19:06:53.924Z,26.10
2022-07-26T19:09:40.494Z,26.10
2022-07-26T19:12:28.209Z,26.00
2022-07-26T19:15:15.803Z,25.90
2022-07-26T19:18:10.848Z,25.80
2022-07-26T19:20:58.579Z,25.70
2022-07-26T19:23:45.336Z,25.70
2022-07-26T19:26:31.967Z,25.60
2022-07-26T19:29:24.319Z,25.50
2022-07-26T19:32:10.982Z,25.50
2022-07-26T19:34:57.777Z,25.50
2022-07-26T19:37:47.010Z,25.50
2022-07-26T19:40:33.987Z,25.30
2022-07-26T19:43:20.766Z,25.20
2022-07-26T19:46:08.428Z,25.10
2022-07-26T19:48:56.770Z,24.90
2022-07-26T19:51:44.228Z,24.90
2022-07-26T19:54:32.273Z,24.80
2022-07-26T19:57:19.794Z,24.90
2022-07-26T20:00:08.941Z,24.60
2022-07-26T20:02:58.886Z,24.10
2022-07-26T20:05:45.874Z,23.70
2022-07-26T20:08:32.504Z,23.40
2022-07-26T20:11:22.661Z,23.50
2022-07-26T20:14:09.868Z,23.50
2022-07-26T20:16:56.910Z,23.50
2022-07-26T20:19:43.760Z,23.20
2022-07-26T20:22:30.633Z,23.00
2022-07-26T20:25:21.355Z,23.00
2022-07-26T20:28:10.054Z,23.00
2022-07-26T20:30:56.765Z,22.90
2022-07-26T20:33:43.743Z,23.00
2022-07-26T20:36:30.847Z,22.80
2022-07-26T20:39:17.746Z,22.90
2022-07-26T20:42:05.544Z,22.80
2022-07-26T20:44:57.489Z,22.90
2022-07-26T20:47:44.457Z,23.00
2022-07-26T20:50:30.830Z,23.00
2022-07-26T20:53:17.784Z,23.10
2022-07-26T20:56:04.867Z,23.00
2022-07-26T20:58:51.433Z,22.90
2022-07-26T21:01:39.991Z,22.50
2022-07-26T21:04:32.094Z,22.40
2022-07-26T21:07:18.847Z,22.10
2022-07-26T21:10:07.030Z,21.70
2022-07-26T21:12:54.631Z,21.40
2022-07-26T21:15:42.373Z,21.30
2022-07-26T21:18:31.241Z,21.30
2022-07-26T21:21:18.085Z,21.20
2022-07-26T21:24:04.882Z,21.00
2022-07-26T21:26:51.443Z,20.70
2022-07-26T21:29:39.367Z,20.70
2022-07-26T21:32:31.321Z,20.50
2022-07-26T21:35:19.819Z,20.60
2022-07-26T21:38:06.211Z,20.70
2022-07-26T21:40:52.582Z,20.60
2022-07-26T21:43:39.029Z,20.60
2022-07-26T21:46:25.865Z,20.70
2022-07-26T21:49:13.407Z,21.00
2022-07-26T21:52:01.821Z,20.60
2022-07-26T21:54:48.649Z,20.60
2022-07-26T21:57:35.559Z,20.40
2022-07-26T22:00:22.325Z,20.50
2022-07-26T22:03:10.118Z,20.30
2022-07-26T22:05:57.061Z,20.40
2022-07-26T22:08:45.207Z,20.70
2022-07-26T22:11:31.848Z,20.40
2022-07-26T22:14:18.619Z,20.20
2022-07-26T22:17:05.218Z,20.20
2022-07-26T22:19:51.650Z,20.40
2022-07-26T22:22:39.125Z,20.80
2022-07-26T22:25:27.243Z,20.50
2022-07-26T22:28:18.094Z,20.60
2022-07-26T22:31:05.217Z,20.70
2022-07-26T22:33:52.090Z,20.20
2022-07-26T22:36:43.499Z,19.70
2022-07-26T22:39:32.204Z,19.80
2022-07-26T22:42:20.503Z,20.00
2022-07-26T22:45:09.929Z,19.50
2022-07-26T22:47:57.735Z,19.50
2022-07-26T22:50:44.494Z,19.70
2022-07-26T22:53:31.070Z,20.10
2022-07-26T22:56:19.931Z,20.30
2022-07-26T22:59:08.087Z,20.50
2022-07-26T23:01:54.822Z,20.50
2022-07-26T23:04:41.525Z,20.60
2022-07-26T23:07:30.365Z,20.60
2022-07-26T23:10:18.851Z,20.70
2022-07-26T23:13:05.913Z,20.80
2022-07-26T23:15:59.904Z,20.80
2022-07-26T23:18:47.478Z,20.60
2022-07-26T23:21:34.462Z,20.70
2022-07-26T23:24:21.814Z,20.80
2022-07-26T23:27:08.354Z,20.70
2022-07-26T23:29:54.822Z,20.80
2022-07-26T23:32:42.889Z,20.80
2022-07-26T23:35:29.558Z,20.90
2022-07-26T23:38:16.465Z,20.90
2022-07-26T23:41:03.397Z,21.00
2022-07-26T23:43:50.593Z,20.90
2022-07-26T23:46:37.483Z,20.80
2022-07-26T23:49:25.954Z,20.90
2022-07-26T23:52:12.464Z,21.00
2022-07-26T23:54:59.003Z,21.10
2022-07-26T23:57:45.434Z,20.90
